Time;durP1;ratioP1;P1;durP2;ratioP2;P2;SDS_P1;SDS_P2;PMS_P1;PMS_P2;Temp;Humidity;BMP_temperature;BMP_pressure;BME280_temperature;BME280_humidity;BME280_pressure;Samples;Min_cycle;Max_cycle;Signal;HPM_P1;HPM_P2
2020/12/14 00:02:06;;;;;;;26.83;15.05;;;5.40;99.90;;;;;;5038588;28;20488;-79
2020/12/14 00:04:31;;;;;;;24.15;14.05;;;5.40;99.90;;;;;;5053903;28;20022;-79
2020/12/14 00:06:57;;;;;;;29.08;14.30;;;5.40;99.90;;;;;;5037923;28;20032;-79
2020/12/14 00:09:23;;;;;;;25.65;14.07;;;5.50;99.90;;;;;;5036256;28;20026;-79
2020/12/14 00:11:49;;;;;;;22.70;13.35;;;5.50;99.90;;;;;;5053514;28;20026;-79
2020/12/14 00:14:15;;;;;;;19.88;13.43;;;5.50;99.90;;;;;;5037821;28;20077;-78
2020/12/14 00:16:41;;;;;;;27.27;14.20;;;5.50;99.90;;;;;;5038421;28;20056;-79
2020/12/14 00:19:07;;;;;;;20.80;13.70;;;5.50;99.90;;;;;;5035816;28;20113;-79
2020/12/14 00:21:33;;;;;;;22.15;13.95;;;5.60;99.90;;;;;;5037529;28;20510;-79
2020/12/14 00:23:58;;;;;;;20.92;13.02;;;5.70;99.90;;;;;;5036077;28;20388;-79
2020/12/14 00:26:24;;;;;;;21.75;14.45;;;5.70;99.90;;;;;;5037698;28;20037;-78
2020/12/14 00:28:49;;;;;;;22.33;13.10;;;5.70;99.90;;;;;;5053907;28;20403;-78
2020/12/14 00:31:16;;;;;;;20.65;13.77;;;5.60;99.90;;;;;;5037319;28;20025;-79
2020/12/14 00:33:43;;;;;;;18.08;12.38;;;5.60;99.90;;;;;;5038675;28;20022;-79
2020/12/14 00:36:10;;;;;;;21.55;13.52;;;5.60;99.90;;;;;;5036738;28;20025;-79
2020/12/14 00:38:36;;;;;;;21.20;13.00;;;5.60;99.90;;;;;;5037049;28;20072;-79
2020/12/14 00:41:01;;;;;;;21.67;13.30;;;5.60;99.90;;;;;;5037219;28;20025;-78
2020/12/14 00:43:27;;;;;;;22.65;13.85;;;5.60;99.90;;;;;;5036856;28;20373;-78
2020/12/14 00:45:52;;;;;;;20.58;13.20;;;5.60;99.90;;;;;;5037131;28;20499;-78
2020/12/14 00:48:18;;;;;;;23.20;13.32;;;5.60;99.90;;;;;;5037933;28;20076;-78
2020/12/14 00:50:44;;;;;;;21.88;14.23;;;5.60;99.90;;;;;;5037536;28;20021;-79
2020/12/14 00:53:10;;;;;;;21.52;14.20;;;5.60;99.90;;;;;;5037289;28;20045;-79
2020/12/14 00:55:35;;;;;;;18.83;12.88;;;5.60;99.90;;;;;;5037054;28;20079;-80
2020/12/14 00:58:01;;;;;;;18.48;12.35;;;5.60;99.90;;;;;;5038589;28;20049;-78
2020/12/14 01:00:26;;;;;;;21.85;13.70;;;5.50;99.90;;;;;;5037085;28;20040;-78
2020/12/14 01:02:52;;;;;;;23.75;14.52;;;5.50;99.90;;;;;;5037016;28;20026;-79
2020/12/14 01:05:18;;;;;;;23.00;13.77;;;5.50;99.90;;;;;;5036791;28;20022;-79
2020/12/14 01:07:43;;;;;;;21.33;14.32;;;5.40;99.90;;;;;;5037589;28;20026;-79
2020/12/14 01:10:09;;;;;;;22.45;14.18;;;5.40;99.90;;;;;;5036957;28;20064;-80
2020/12/14 01:12:34;;;;;;;22.33;13.80;;;5.40;99.90;;;;;;5036947;28;20492;-80
2020/12/14 01:15:00;;;;;;;17.98;9.93;;;5.30;99.90;;;;;;5037808;28;20112;-79
2020/12/14 01:17:25;;;;;;;16.98;11.25;;;5.30;99.90;;;;;;5038759;28;20048;-79
2020/12/14 01:19:51;;;;;;;18.75;9.93;;;5.30;99.90;;;;;;5037180;28;20049;-79
2020/12/14 01:22:17;;;;;;;15.77;10.80;;;5.30;99.90;;;;;;5036502;28;20017;-79
2020/12/14 01:24:42;;;;;;;16.67;11.27;;;5.40;99.90;;;;;;5052020;28;20024;-79
2020/12/14 01:27:08;;;;;;;18.15;11.75;;;5.40;99.90;;;;;;5036526;28;20025;-79
2020/12/14 01:29:33;;;;;;;17.58;11.57;;;5.30;99.90;;;;;;5036207;28;20025;-79
2020/12/14 01:31:59;;;;;;;18.25;11.63;;;5.30;99.90;;;;;;5036893;28;20026;-79
2020/12/14 01:34:24;;;;;;;17.95;11.25;;;5.30;99.90;;;;;;5037063;28;20039;-79
2020/12/14 01:36:50;;;;;;;18.85;11.93;;;5.40;99.90;;;;;;5052927;28;20408;-79
2020/12/14 01:39:16;;;;;;;17.08;10.70;;;5.40;99.90;;;;;;5037047;28;20026;-79
2020/12/14 01:41:42;;;;;;;13.40;9.45;;;5.40;99.90;;;;;;5052097;28;20029;-79
2020/12/14 01:44:07;;;;;;;13.25;9.60;;;5.40;99.90;;;;;;5037035;28;20021;-79
2020/12/14 01:46:42;;;;;;;14.75;10.07;;;5.40;99.90;;;;;;5052907;28;20026;-79
2020/12/14 01:49:08;;;;;;;16.27;10.38;;;5.40;99.90;;;;;;5053256;28;20025;-79
2020/12/14 01:51:35;;;;;;;13.68;9.73;;;5.30;99.90;;;;;;5036008;28;20396;-80
2020/12/14 01:54:07;;;;;;;16.50;10.35;;;5.30;99.90;;;;;;5037039;28;20033;-79
2020/12/14 01:56:33;;;;;;;15.63;9.90;;;5.20;99.90;;;;;;5037101;28;20037;-80
2020/12/14 01:58:58;;;;;;;14.52;10.23;;;5.20;99.90;;;;;;5041307;28;20492;-80
2020/12/14 02:01:24;;;;;;;13.25;9.52;;;5.10;99.90;;;;;;5039708;28;20092;-80
2020/12/14 02:03:49;;;;;;;15.45;10.68;;;5.20;99.90;;;;;;5056082;28;20030;-80
2020/12/14 02:06:15;;;;;;;15.18;10.73;;;5.20;99.90;;;;;;5040673;28;20033;-79
2020/12/14 02:08:41;;;;;;;19.88;10.07;;;5.20;99.90;;;;;;5040235;28;20029;-79
2020/12/14 02:11:06;;;;;;;11.25;8.60;;;5.20;99.90;;;;;;5039084;28;20029;-80
2020/12/14 02:13:32;;;;;;;7.72;6.00;;;5.30;99.90;;;;;;5055240;28;20084;-79
2020/12/14 02:15:57;;;;;;;8.43;6.45;;;5.30;99.90;;;;;;5055134;28;20089;-79
2020/12/14 02:18:23;;;;;;;9.35;6.97;;;5.20;99.90;;;;;;5039557;28;20112;-79
2020/12/14 02:20:49;;;;;;;9.88;7.80;;;5.00;99.90;;;;;;5039757;28;20029;-79
2020/12/14 02:23:15;;;;;;;11.90;8.27;;;4.90;99.90;;;;;;5038526;28;20030;-79
2020/12/14 02:25:41;;;;;;;12.80;9.20;;;4.80;99.90;;;;;;5039808;28;20476;-79
2020/12/14 02:28:06;;;;;;;14.10;9.82;;;4.70;99.90;;;;;;5039621;28;20021;-79
2020/12/14 02:30:32;;;;;;;13.98;9.98;;;4.60;99.90;;;;;;5038045;28;20029;-80
2020/12/14 02:32:57;;;;;;;14.05;9.82;;;4.50;99.90;;;;;;5038464;28;20031;-79
2020/12/14 02:35:23;;;;;;;13.13;9.18;;;4.40;99.90;;;;;;5038704;28;20026;-80
2020/12/14 02:37:48;;;;;;;11.80;8.60;;;4.30;99.90;;;;;;5039354;28;20095;-79
2020/12/14 02:40:14;;;;;;;12.75;8.70;;;4.20;99.90;;;;;;5054931;28;20029;-79
2020/12/14 02:42:39;;;;;;;13.32;9.93;;;4.20;99.90;;;;;;5039628;28;20029;-79
2020/12/14 02:45:05;;;;;;;12.57;9.23;;;4.20;99.90;;;;;;5039830;28;20077;-80
2020/12/14 02:47:31;;;;;;;12.38;8.98;;;4.00;99.90;;;;;;5038697;28;20029;-79
2020/12/14 02:49:56;;;;;;;14.85;9.55;;;3.80;99.90;;;;;;5039877;28;20040;-79
2020/12/14 02:52:22;;;;;;;15.45;10.88;;;3.80;99.90;;;;;;5039836;28;20028;-80
2020/12/14 02:54:47;;;;;;;16.08;11.13;;;3.80;99.90;;;;;;5039416;28;20037;-78
2020/12/14 02:57:13;;;;;;;17.45;11.55;;;3.80;99.90;;;;;;5046653;28;20028;-78
2020/12/14 02:59:39;;;;;;;19.40;11.75;;;3.80;99.90;;;;;;5046673;28;20025;-78
2020/12/14 03:02:05;;;;;;;18.58;12.27;;;3.70;99.90;;;;;;5062792;28;20040;-78
2020/12/14 03:04:31;;;;;;;20.25;13.55;;;3.70;99.90;;;;;;5046629;28;20026;-78
2020/12/14 03:06:56;;;;;;;21.90;12.43;;;3.80;99.90;;;;;;5046809;28;20026;-78
2020/12/14 03:09:22;;;;;;;19.50;12.35;;;3.70;99.90;;;;;;5046403;28;20034;-78
2020/12/14 03:11:48;;;;;;;19.10;13.20;;;3.70;99.90;;;;;;5047141;28;20026;-78
2020/12/14 03:14:14;;;;;;;19.00;13.02;;;3.70;99.90;;;;;;5046365;28;20484;-78
2020/12/14 03:16:51;;;;;;;19.80;13.20;;;3.70;99.90;;;;;;5045968;28;20029;-78
2020/12/14 03:19:18;;;;;;;22.42;13.65;;;3.70;99.90;;;;;;5057577;22;20049;-75
2020/12/14 03:21:43;;;;;;;19.70;12.88;;;3.70;99.90;;;;;;5015876;28;20030;-75
2020/12/14 03:24:09;;;;;;;20.77;13.60;;;3.70;99.90;;;;;;5015494;28;20018;-74
2020/12/14 03:26:35;;;;;;;20.98;13.25;;;3.60;99.90;;;;;;5014180;28;20034;-74
2020/12/14 03:29:02;;;;;;;20.08;13.15;;;3.60;99.90;;;;;;5015588;28;20469;-74
2020/12/14 03:31:27;;;;;;;21.08;13.48;;;3.60;99.90;;;;;;5015442;28;20028;-74
2020/12/14 03:33:54;;;;;;;22.20;13.32;;;3.60;99.90;;;;;;5014098;28;20022;-75
2020/12/14 03:36:20;;;;;;;22.58;14.05;;;3.60;99.90;;;;;;5015219;28;20030;-75
2020/12/14 03:38:51;;;;;;;20.83;12.75;;;3.60;99.90;;;;;;5015005;28;20057;-75
2020/12/14 03:41:17;;;;;;;20.42;13.68;;;3.60;99.90;;;;;;4997573;28;20034;-74
2020/12/14 03:43:43;;;;;;;24.90;15.18;;;3.60;99.90;;;;;;5015149;28;20030;-75
2020/12/14 03:46:21;;;;;;;22.88;14.10;;;3.50;99.90;;;;;;5013772;28;20022;-74
2020/12/14 03:48:47;;;;;;;19.92;12.82;;;3.40;99.90;;;;;;5014919;28;20034;-74
2020/12/14 03:51:13;;;;;;;20.35;12.98;;;3.30;99.90;;;;;;5014962;28;20026;-74
2020/12/14 03:53:39;;;;;;;20.55;12.70;;;3.20;99.90;;;;;;5014956;28;20514;-74
2020/12/14 03:56:05;;;;;;;17.40;11.88;;;3.10;99.90;;;;;;5013651;28;20109;-74
2020/12/14 03:58:31;;;;;;;21.23;12.30;;;3.10;99.90;;;;;;5013553;28;20136;-74
2020/12/14 04:00:57;;;;;;;19.30;11.02;;;3.00;99.90;;;;;;5014699;28;20466;-74
2020/12/14 04:03:23;;;;;;;20.83;12.13;;;2.90;99.90;;;;;;5013621;28;20030;-74
2020/12/14 04:05:49;;;;;;;17.02;12.07;;;2.90;99.90;;;;;;5014725;28;20109;-74
2020/12/14 04:08:15;;;;;;;20.42;11.50;;;2.90;99.90;;;;;;5014693;28;20054;-74
2020/12/14 04:10:41;;;;;;;13.63;9.32;;;2.80;99.90;;;;;;5014619;28;20029;-75
2020/12/14 04:13:06;;;;;;;18.20;10.88;;;2.70;99.90;;;;;;5015005;28;20022;-75
2020/12/14 04:15:32;;;;;;;17.33;10.77;;;2.70;99.90;;;;;;5015539;28;20026;-75
2020/12/14 04:17:57;;;;;;;17.02;10.07;;;2.80;99.90;;;;;;5015270;28;20060;-74
2020/12/14 04:20:23;;;;;;;18.88;11.52;;;2.70;99.90;;;;;;5012797;28;20030;-75
2020/12/14 04:22:49;;;;;;;17.75;10.35;;;2.70;99.90;;;;;;5013103;28;20018;-74
2020/12/14 04:25:16;;;;;;;19.45;11.50;;;2.70;99.90;;;;;;4996967;28;20010;-75
2020/12/14 04:27:42;;;;;;;20.63;11.43;;;2.60;99.90;;;;;;5014273;28;20026;-75
2020/12/14 04:30:07;;;;;;;21.75;11.48;;;2.60;99.90;;;;;;5014486;28;20556;-75
2020/12/14 04:32:33;;;;;;;17.85;11.27;;;2.50;99.90;;;;;;5014225;28;20034;-75
2020/12/14 04:34:58;;;;;;;47.38;14.27;;;2.50;99.90;;;;;;5012923;28;20030;-75
2020/12/14 04:37:24;;;;;;;33.08;14.63;;;2.60;99.90;;;;;;5014142;28;20121;-75
2020/12/14 04:39:49;;;;;;;72.43;14.60;;;2.50;99.90;;;;;;5012711;28;20117;-75
2020/12/14 04:42:15;;;;;;;39.53;13.73;;;2.60;99.90;;;;;;5012858;28;20034;-75
2020/12/14 04:44:42;;;;;;;25.55;12.98;;;2.60;99.90;;;;;;5012783;28;20029;-74
2020/12/14 04:47:12;;;;;;;23.67;11.43;;;2.60;99.90;;;;;;5013958;28;20028;-75
2020/12/14 04:49:39;;;;;;;22.60;12.07;;;2.60;99.90;;;;;;5013859;28;20021;-74
2020/12/14 04:52:05;;;;;;;38.22;14.23;;;2.60;99.90;;;;;;5012583;28;20117;-75
2020/12/14 04:54:32;;;;;;;39.53;14.18;;;2.70;99.90;;;;;;5012566;28;20025;-74
2020/12/14 04:57:04;;;;;;;29.90;13.38;;;2.80;99.90;;;;;;4996166;28;20029;-74
2020/12/14 04:59:30;;;;;;;24.17;14.35;;;2.80;99.90;;;;;;5013844;28;20418;-74
2020/12/14 05:02:07;;;;;;;38.08;14.80;;;2.80;99.90;;;;;;5012444;28;20125;-74
2020/12/14 05:04:33;;;;;;;34.97;14.23;;;2.80;99.90;;;;;;5014095;28;20033;-74
2020/12/14 05:06:59;;;;;;;24.77;13.48;;;2.80;99.90;;;;;;5012483;28;20072;-74
2020/12/14 05:09:24;;;;;;;32.67;15.10;;;2.80;99.90;;;;;;5013633;28;20030;-74
2020/12/14 05:11:50;;;;;;;42.35;14.70;;;2.80;99.90;;;;;;5012279;28;20029;-74
2020/12/14 05:14:21;;;;;;;44.42;15.25;;;2.80;99.90;;;;;;5013606;28;20056;-74
2020/12/14 05:16:48;;;;;;;35.40;13.77;;;2.90;99.90;;;;;;5013576;28;20026;-74
2020/12/14 05:19:17;;;;;;;60.30;18.83;;;3.00;99.90;;;;;;5013247;28;20065;-74
2020/12/14 05:21:51;;;;;;;50.55;16.50;;;3.00;99.90;;;;;;5013850;28;20116;-74
2020/12/14 05:24:30;;;;;;;30.63;14.10;;;3.00;99.90;;;;;;4995792;28;20064;-74
2020/12/14 05:26:58;;;;;;;34.85;15.80;;;3.00;99.90;;;;;;5013976;28;20117;-75
2020/12/14 05:29:26;;;;;;;28.77;14.20;;;3.00;99.90;;;;;;4995628;28;20576;-74
2020/12/14 05:32:07;;;;;;;38.45;15.15;;;2.90;99.90;;;;;;5013120;28;20040;-74
2020/12/14 05:34:38;;;;;;;47.60;16.45;;;2.90;99.90;;;;;;5013321;28;20018;-74
2020/12/14 05:37:06;;;;;;;40.97;16.08;;;2.90;99.90;;;;;;5011999;28;20132;-74
2020/12/14 05:39:34;;;;;;;45.55;16.95;;;3.00;99.90;;;;;;5011855;28;20111;-75
2020/12/14 05:42:26;;;;;;;44.08;16.15;;;3.00;99.90;;;;;;5013168;28;20026;-75
2020/12/14 05:44:52;;;;;;;68.57;17.67;;;3.00;99.90;;;;;;5006959;28;20037;-75
2020/12/14 05:47:25;;;;;;;40.33;15.57;;;3.10;99.90;;;;;;5013505;28;20022;-73
2020/12/14 05:49:51;;;;;;;33.85;15.32;;;3.10;99.90;;;;;;5013055;28;20022;-74
2020/12/14 05:52:19;;;;;;;41.03;17.90;;;3.10;99.90;;;;;;5013336;28;20033;-74
2020/12/14 05:54:51;;;;;;;50.45;18.27;;;3.10;99.90;;;;;;5013100;28;20100;-75
2020/12/14 05:57:33;;;;;;;36.33;16.27;;;3.20;99.90;;;;;;5013469;28;20046;-74
2020/12/14 06:00:01;;;;;;;39.63;17.95;;;3.20;99.90;;;;;;5011658;28;20060;-74
2020/12/14 06:02:27;;;;;;;38.83;17.80;;;3.10;99.90;;;;;;5013247;28;20060;-75
2020/12/14 06:04:56;;;;;;;37.75;15.27;;;3.10;99.90;;;;;;5013387;28;20018;-74
2020/12/14 06:07:25;;;;;;;36.80;14.88;;;3.10;99.90;;;;;;5011644;28;20024;-74
2020/12/14 06:10:15;;;;;;;28.45;14.18;;;3.10;99.90;;;;;;5011996;28;20399;-74
2020/12/14 06:12:42;;;;;;;40.47;14.50;;;3.10;99.90;;;;;;5013320;28;20026;-74
2020/12/14 06:15:14;;;;;;;31.67;13.75;;;3.10;99.90;;;;;;5011627;28;20041;-74
2020/12/14 06:17:40;;;;;;;55.20;14.88;;;3.10;99.90;;;;;;5011604;28;20033;-74
2020/12/14 06:20:20;;;;;;;34.42;14.07;;;3.00;99.90;;;;;;5012537;28;20196;-75
2020/12/14 06:22:49;;;;;;;36.28;13.52;;;3.00;99.90;;;;;;5012783;28;20041;-74
2020/12/14 06:25:16;;;;;;;30.90;12.93;;;3.00;99.90;;;;;;5012816;28;20024;-74
2020/12/14 06:27:41;;;;;;;30.45;13.50;;;3.00;99.90;;;;;;5012813;28;20022;-74
2020/12/14 06:30:30;;;;;;;26.98;13.50;;;2.90;99.90;;;;;;5012794;28;20088;-74
2020/12/14 06:33:12;;;;;;;26.95;13.77;;;2.90;99.90;;;;;;5012748;28;20546;-74
2020/12/14 06:35:45;;;;;;;22.92;12.75;;;2.80;99.90;;;;;;5013348;28;20022;-74
2020/12/14 06:38:11;;;;;;;28.17;13.75;;;2.80;99.90;;;;;;5011521;28;20026;-74
2020/12/14 06:40:59;;;;;;;32.13;14.63;;;2.80;99.90;;;;;;5012881;28;20153;-75
2020/12/14 06:43:34;;;;;;;27.23;13.27;;;2.70;99.90;;;;;;5015124;28;20037;-74
2020/12/14 06:46:02;;;;;;;24.48;12.95;;;2.80;99.90;;;;;;5017830;28;20518;-74
2020/12/14 06:48:38;;;;;;;31.50;14.05;;;2.80;99.90;;;;;;5016341;28;20480;-74
2020/12/14 06:51:06;;;;;;;35.42;14.75;;;2.80;99.90;;;;;;4998834;28;20022;-75
2020/12/14 06:53:52;;;;;;;40.95;15.45;;;2.80;99.90;;;;;;4998858;28;20077;-75
2020/12/14 06:56:27;;;;;;;33.67;13.52;;;2.70;99.90;;;;;;5016864;28;20026;-74
2020/12/14 06:58:53;;;;;;;72.13;18.63;;;2.70;99.90;;;;;;5016098;28;20036;-74
2020/12/14 07:01:39;;;;;;;27.77;12.90;;;2.60;99.90;;;;;;4998538;28;20048;-74
2020/12/14 07:04:15;;;;;;;29.67;13.45;;;2.60;99.90;;;;;;5016189;28;20049;-74
2020/12/14 07:06:40;;;;;;;29.45;13.45;;;2.60;99.90;;;;;;5016365;28;20380;-75
2020/12/14 07:09:28;;;;;;;33.05;13.27;;;2.60;99.90;;;;;;5015996;28;20034;-75
2020/12/14 07:11:55;;;;;;;26.00;11.63;;;2.60;99.90;;;;;;5015794;28;20584;-75
2020/12/14 07:14:30;;;;;;;34.42;12.93;;;2.60;99.90;;;;;;5014546;28;20065;-74
2020/12/14 07:16:57;;;;;;;30.60;11.98;;;2.70;99.90;;;;;;5015977;28;20029;-74
2020/12/14 07:19:36;;;;;;;30.20;11.82;;;2.60;99.90;;;;;;5014244;28;20164;-74
2020/12/14 07:22:02;;;;;;;26.55;11.95;;;2.60;99.90;;;;;;5015942;28;20018;-74
2020/12/14 07:24:34;;;;;;;29.15;12.57;;;2.60;99.90;;;;;;5015583;28;20536;-74
2020/12/14 07:27:00;;;;;;;42.50;13.85;;;2.70;99.90;;;;;;5015965;28;20050;-75
2020/12/14 07:29:26;;;;;;;26.40;13.05;;;2.70;99.90;;;;;;5014619;28;20081;-75
2020/12/14 07:31:52;;;;;;;33.28;13.15;;;2.70;99.90;;;;;;5015641;28;20034;-75
2020/12/14 07:34:18;;;;;;;34.70;13.63;;;2.70;99.90;;;;;;5014374;28;20022;-75
2020/12/14 07:36:43;;;;;;;27.00;13.20;;;2.70;99.90;;;;;;5015439;28;20084;-76
2020/12/14 07:39:09;;;;;;;25.23;12.77;;;2.70;99.90;;;;;;5015419;28;20029;-75
2020/12/14 07:41:34;;;;;;;26.65;12.77;;;2.70;99.90;;;;;;5015260;28;20125;-75
2020/12/14 07:44:00;;;;;;;26.05;12.65;;;2.70;99.90;;;;;;5014187;28;20029;-75
2020/12/14 07:46:34;;;;;;;24.95;11.98;;;2.70;99.90;;;;;;5014036;28;20049;-75
2020/12/14 07:49:13;;;;;;;26.85;11.73;;;2.70;99.90;;;;;;5015131;28;20378;-75
2020/12/14 07:51:47;;;;;;;24.10;12.32;;;2.70;99.90;;;;;;5013801;28;20509;-75
2020/12/14 07:54:19;;;;;;;22.75;11.63;;;2.80;99.90;;;;;;5015126;28;20022;-75
2020/12/14 07:57:01;;;;;;;26.90;12.23;;;2.80;99.90;;;;;;5013772;28;20049;-75
2020/12/14 07:59:29;;;;;;;25.08;11.98;;;2.90;99.90;;;;;;4997401;28;20076;-75
2020/12/14 08:01:56;;;;;;;29.65;12.30;;;2.90;99.90;;;;;;5015012;28;20397;-75
2020/12/14 08:04:26;;;;;;;37.70;13.57;;;3.00;99.90;;;;;;5015122;28;20040;-75
2020/12/14 08:06:53;;;;;;;30.23;14.60;;;3.00;99.90;;;;;;5014916;28;20029;-75
2020/12/14 08:09:22;;;;;;;26.60;12.82;;;3.10;99.90;;;;;;5013569;28;20033;-75
2020/12/14 08:11:49;;;;;;;24.48;12.32;;;3.10;99.90;;;;;;5014996;28;20025;-75
2020/12/14 08:14:17;;;;;;;27.00;14.27;;;3.10;99.90;;;;;;5014706;28;20036;-75
2020/12/14 08:16:45;;;;;;;21.95;11.60;;;3.20;99.90;;;;;;5014588;28;20029;-75
2020/12/14 08:19:23;;;;;;;19.50;10.38;;;3.20;99.90;;;;;;5014279;28;20030;-75
2020/12/14 08:22:00;;;;;;;20.85;10.82;;;3.20;99.90;;;;;;5014544;28;20022;-75
2020/12/14 08:24:26;;;;;;;29.38;13.27;;;3.30;99.90;;;;;;5014474;28;20018;-75
2020/12/14 08:26:58;;;;;;;26.08;13.27;;;3.30;99.90;;;;;;5014691;28;20026;-75
2020/12/14 08:29:25;;;;;;;;;;;3.40;99.90;;;;;;4997227;28;20112;-75
2020/12/14 08:31:55;;;;;;;26.38;13.07;;;3.40;99.90;;;;;;5013123;28;19906;-75
2020/12/14 08:34:28;;;;;;;22.88;11.90;;;3.40;99.90;;;;;;5014300;28;20029;-74
2020/12/14 08:36:53;;;;;;;21.60;11.75;;;3.50;99.90;;;;;;5014285;28;20029;-74
2020/12/14 08:39:19;;;;;;;35.58;15.45;;;3.50;99.90;;;;;;5014004;28;20030;-74
2020/12/14 08:41:44;;;;;;;38.33;18.63;;;3.50;99.90;;;;;;5015050;28;20026;-75
2020/12/14 08:44:21;;;;;;;19.52;9.85;;;3.50;99.90;;;;;;5013387;28;20072;-75
2020/12/14 08:46:46;;;;;;;18.23;9.98;;;3.60;99.90;;;;;;5015322;28;20034;-74
2020/12/14 08:49:12;;;;;;;15.82;8.65;;;3.70;99.90;;;;;;5014217;28;20053;-74
2020/12/14 08:51:37;;;;;;;25.10;9.50;;;3.70;99.90;;;;;;5014053;28;20060;-74
2020/12/14 08:54:13;;;;;;;15.00;8.52;;;3.70;99.90;;;;;;5014621;28;20499;-74
2020/12/14 08:56:39;;;;;;;16.13;9.18;;;3.80;99.90;;;;;;5014737;28;20034;-75
2020/12/14 08:59:15;;;;;;;18.13;11.88;;;3.80;99.90;;;;;;5014812;28;20026;-75
2020/12/14 09:02:04;;;;;;;15.88;9.52;;;3.90;99.90;;;;;;5014531;28;20072;-75
2020/12/14 09:04:39;;;;;;;17.83;9.80;;;3.90;99.90;;;;;;5014079;28;20024;-75
2020/12/14 09:07:06;;;;;;;16.05;9.80;;;3.90;99.90;;;;;;5013904;28;20014;-75
2020/12/14 09:09:37;;;;;;;24.38;11.10;;;4.00;99.90;;;;;;5013575;28;20026;-75
2020/12/14 09:12:09;;;;;;;18.48;9.25;;;4.10;99.90;;;;;;5013638;28;20021;-75
2020/12/14 09:14:35;;;;;;;17.30;9.38;;;4.20;99.90;;;;;;5014232;28;20022;-74
2020/12/14 09:17:03;;;;;;;19.73;8.85;;;4.20;99.90;;;;;;5013666;28;20443;-74
2020/12/14 09:19:31;;;;;;;20.58;10.43;;;4.30;99.90;;;;;;5039339;22;20088;-77
2020/12/14 09:21:57;;;;;;;17.17;9.57;;;4.30;99.90;;;;;;5000120;28;20128;-78
2020/12/14 09:24:28;;;;;;;16.85;9.18;;;4.30;99.90;;;;;;5016466;28;20104;-79
2020/12/14 09:27:02;;;;;;;15.02;8.63;;;4.40;99.90;;;;;;5014271;28;20026;-77
2020/12/14 09:29:28;;;;;;;14.05;8.35;;;4.60;99.90;;;;;;5015983;28;20037;-79
2020/12/14 09:31:55;;;;;;;12.52;7.82;;;4.70;99.90;;;;;;5015724;28;20026;-79
2020/12/14 09:34:21;;;;;;;16.33;9.43;;;4.90;99.90;;;;;;5016659;28;20029;-78
2020/12/14 09:36:55;;;;;;;19.13;10.65;;;5.00;99.90;;;;;;5016053;28;20105;-77
2020/12/14 09:39:22;;;;;;;18.35;10.98;;;5.10;99.90;;;;;;4998858;28;20030;-79
2020/12/14 09:41:48;;;;;;;17.63;10.98;;;5.20;99.90;;;;;;5000849;28;20018;-78
2020/12/14 09:44:13;;;;;;;21.15;13.48;;;5.30;99.90;;;;;;5017505;28;20033;-79
2020/12/14 09:46:39;;;;;;;19.65;12.40;;;5.50;99.90;;;;;;5017603;28;20030;-78
2020/12/14 09:49:05;;;;;;;20.30;12.40;;;5.50;99.90;;;;;;5018168;28;20036;-78
2020/12/14 09:51:34;;;;;;;20.45;12.85;;;5.40;99.90;;;;;;5016058;28;20037;-79
2020/12/14 09:53:59;;;;;;;20.55;13.45;;;5.30;99.90;;;;;;5017098;28;20030;-79
2020/12/14 09:56:25;;;;;;;19.30;11.65;;;5.30;99.90;;;;;;5015347;28;20374;-79
2020/12/14 09:58:50;;;;;;;18.17;11.52;;;5.40;99.90;;;;;;5015318;28;20026;-78
2020/12/14 10:01:16;;;;;;;16.13;10.38;;;6.00;99.90;;;;;;5015281;28;20022;-79
2020/12/14 10:03:42;;;;;;;11.40;8.02;;;7.70;99.90;;;;;;5015798;28;20076;-79
2020/12/14 10:06:15;;;;;;;15.25;10.18;;;9.60;99.90;;;;;;5015428;28;20551;-78
2020/12/14 10:08:41;;;;;;;11.43;8.48;;;10.70;99.90;;;;;;5015677;28;20030;-78
2020/12/14 10:11:10;;;;;;;13.65;9.32;;;11.50;99.90;;;;;;5014523;28;20034;-78
2020/12/14 10:13:36;;;;;;;13.75;8.82;;;11.90;99.90;;;;;;5014366;28;20029;-78
2020/12/14 10:16:03;;;;;;;11.82;9.02;;;13.50;99.90;;;;;;5014679;28;20029;-79
2020/12/14 10:18:28;;;;;;;9.90;7.70;;;15.80;94.30;;;;;;5018228;28;20053;-79
2020/12/14 10:20:54;;;;;;;9.25;7.38;;;18.30;69.40;;;;;;5017625;28;20061;-79
2020/12/14 10:23:20;;;;;;;9.10;7.10;;;18.60;62.90;;;;;;5018820;28;20090;-78
2020/12/14 10:25:45;;;;;;;11.05;8.10;;;17.00;63.40;;;;;;5019843;28;20033;-78
2020/12/14 10:28:11;;;;;;;11.43;7.70;;;14.90;71.00;;;;;;5020641;28;20033;-79
2020/12/14 10:30:37;;;;;;;10.85;7.28;;;13.10;80.00;;;;;;5020624;28;20022;-78
2020/12/14 10:33:04;;;;;;;8.45;6.55;;;12.90;84.00;;;;;;5019969;28;20022;-78
2020/12/14 10:35:30;;;;;;;8.23;5.45;;;13.70;84.60;;;;;;5020484;28;20018;-78
2020/12/14 10:37:55;;;;;;;6.50;4.88;;;15.60;75.50;;;;;;5020139;28;20412;-78
2020/12/14 10:40:22;;;;;;;5.97;4.70;;;16.70;69.20;;;;;;5020080;28;20028;-78
2020/12/14 10:42:48;;;;;;;6.63;4.97;;;17.20;64.80;;;;;;5018290;28;20022;-78
2020/12/14 10:45:14;;;;;;;10.15;6.90;;;16.90;65.60;;;;;;5019557;28;20065;-78
2020/12/14 10:47:42;;;;;;;9.23;6.47;;;16.80;65.10;;;;;;5019913;28;20469;-78
2020/12/14 10:50:09;;;;;;;6.65;5.18;;;15.70;68.50;;;;;;5017713;28;20030;-78
2020/12/14 10:52:34;;;;;;;5.70;4.18;;;14.90;71.20;;;;;;5018818;28;20026;-78
2020/12/14 10:55:01;;;;;;;6.63;4.53;;;15.40;71.00;;;;;;5019855;28;20378;-79
2020/12/14 10:57:26;;;;;;;8.80;6.05;;;15.10;71.00;;;;;;5020754;28;20477;-78
2020/12/14 10:59:55;;;;;;;6.78;5.15;;;14.00;75.10;;;;;;5020669;28;20040;-78
2020/12/14 11:02:22;;;;;;;6.30;4.85;;;14.00;77.00;;;;;;5019484;28;20532;-78
2020/12/14 11:04:47;;;;;;;6.57;4.15;;;16.70;69.80;;;;;;5018593;28;20034;-79
2020/12/14 11:07:13;;;;;;;6.63;4.45;;;20.50;57.60;;;;;;5019131;28;20149;-79
2020/12/14 11:09:38;;;;;;;5.03;4.07;;;23.60;47.90;;;;;;5018040;28;20030;-79
2020/12/14 11:12:07;;;;;;;4.75;3.90;;;25.50;41.60;;;;;;5018496;28;20033;-79
2020/12/14 11:14:34;;;;;;;6.28;4.80;;;26.70;40.00;;;;;;5020110;28;20033;-79
2020/12/14 11:17:01;;;;;;;6.00;4.50;;;29.00;35.90;;;;;;5018748;28;20493;-79
2020/12/14 11:19:27;;;;;;;7.72;4.13;;;30.50;31.60;;;;;;5019573;28;20049;-79
2020/12/14 11:21:57;;;;;;;6.13;4.32;;;31.40;30.60;;;;;;5017485;28;20030;-79
2020/12/14 11:24:23;;;;;;;6.63;4.70;;;31.60;29.10;;;;;;5018760;28;20033;-79
2020/12/14 11:26:49;;;;;;;5.95;5.38;;;31.30;28.70;;;;;;5018555;28;20026;-82
2020/12/14 11:29:15;;;;;;;6.30;4.38;;;29.50;29.90;;;;;;5018498;28;20068;-78
2020/12/14 11:31:41;;;;;;;5.10;4.07;;;28.60;31.40;;;;;;5020139;28;20025;-79
2020/12/14 11:34:06;;;;;;;4.47;4.00;;;28.90;30.90;;;;;;5021162;28;20115;-79
2020/12/14 11:36:33;;;;;;;3.88;3.47;;;30.30;29.60;;;;;;5020889;28;20131;-79
2020/12/14 11:38:59;;;;;;;4.45;4.05;;;31.00;28.70;;;;;;5019518;28;20026;-79
2020/12/14 11:41:25;;;;;;;3.78;3.30;;;32.10;27.90;;;;;;5019526;28;20155;-79
2020/12/14 11:43:52;;;;;;;3.67;3.30;;;32.60;27.50;;;;;;5018581;28;20026;-78
2020/12/14 11:46:17;;;;;;;2.85;2.55;;;32.50;26.90;;;;;;5017907;28;20088;-79
2020/12/14 11:48:43;;;;;;;3.88;3.47;;;32.60;26.90;;;;;;5020092;28;20026;-79
2020/12/14 11:51:09;;;;;;;3.97;3.55;;;33.00;26.00;;;;;;5019908;28;20056;-79
2020/12/14 11:53:34;;;;;;;3.80;3.50;;;32.90;26.10;;;;;;5018704;28;20029;-79
2020/12/14 11:56:00;;;;;;;3.78;2.80;;;32.00;26.20;;;;;;5017369;28;20026;-78
2020/12/14 11:58:25;;;;;;;4.60;3.20;;;31.40;27.10;;;;;;5019239;28;20022;-79
2020/12/14 12:00:51;;;;;;;3.55;3.22;;;31.30;27.20;;;;;;5019884;28;20378;-78
2020/12/14 12:03:17;;;;;;;3.85;3.35;;;31.80;26.80;;;;;;5021541;28;20029;-79
2020/12/14 12:05:42;;;;;;;2.65;2.45;;;32.50;26.40;;;;;;5018147;28;20033;-79
2020/12/14 12:08:08;;;;;;;3.33;3.03;;;32.10;26.20;;;;;;5019464;28;20065;-80
2020/12/14 12:10:35;;;;;;;3.28;2.97;;;32.00;26.60;;;;;;5019255;28;20028;-79
2020/12/14 12:13:01;;;;;;;3.85;3.47;;;31.80;26.50;;;;;;5017768;28;20022;-78
2020/12/14 12:15:26;;;;;;;3.70;3.40;;;30.80;26.70;;;;;;5019265;28;20076;-79
2020/12/14 12:17:53;;;;;;;5.70;3.45;;;28.40;29.30;;;;;;5019655;28;20048;-79
2020/12/14 12:20:19;;;;;;;3.75;3.35;;;25.10;33.50;;;;;;5019250;28;20038;-78
2020/12/14 12:22:44;;;;;;;3.47;3.08;;;22.90;38.20;;;;;;5019667;28;20385;-78
2020/12/14 12:25:10;;;;;;;3.97;3.58;;;22.50;39.30;;;;;;5020218;28;20030;-78
2020/12/14 12:27:36;;;;;;;3.75;3.30;;;23.20;37.90;;;;;;5019818;28;20026;-78
2020/12/14 12:30:01;;;;;;;6.57;4.45;;;23.20;37.90;;;;;;5019879;28;20026;-79
2020/12/14 12:32:27;;;;;;;4.90;4.32;;;22.40;39.80;;;;;;5019589;28;20440;-79
2020/12/14 12:34:52;;;;;;;5.05;4.00;;;21.10;41.80;;;;;;5019822;28;20082;-78
2020/12/14 12:37:18;;;;;;;4.13;3.50;;;19.70;44.80;;;;;;5021784;28;20395;-79
2020/12/14 12:39:43;;;;;;;5.00;4.20;;;18.40;48.10;;;;;;5022523;28;20101;-79
2020/12/14 12:42:09;;;;;;;4.15;3.50;;;17.20;50.30;;;;;;5021889;28;20125;-79
2020/12/14 12:44:34;;;;;;;5.70;4.97;;;16.70;52.20;;;;;;5019782;28;20481;-78